Time;durP1;ratioP1;P1;durP2;ratioP2;P2;SDS_P1;SDS_P2;PMS_P1;PMS_P2;Temp;Humidity;BMP_temperature;BMP_pressure;BME280_temperature;BME280_humidity;BME280_pressure;Samples;Min_cycle;Max_cycle;Signal;HPM_P1;HPM_P2
2022/05/28 00:00:56;;;;;;;4.68;1.63;;;14.30;99.90;;;;;;4937941;29;20217;-84
2022/05/28 00:03:27;;;;;;;1.65;1.55;;;14.30;99.90;;;;;;4937024;29;20254;-84
2022/05/28 00:05:56;;;;;;;1.48;1.40;;;14.30;99.90;;;;;;4937932;29;20293;-84
2022/05/28 00:08:25;;;;;;;1.33;1.23;;;14.30;99.90;;;;;;4937775;29;20268;-84
2022/05/28 00:10:58;;;;;;;1.73;1.63;;;14.30;99.90;;;;;;4937794;29;20206;-84
2022/05/28 00:13:27;;;;;;;2.03;1.85;;;14.30;99.90;;;;;;4938008;29;20230;-84
2022/05/28 00:15:55;;;;;;;1.52;1.42;;;14.40;99.90;;;;;;4937577;29;20229;-85
2022/05/28 00:18:24;;;;;;;1.67;1.58;;;14.40;99.90;;;;;;4937695;29;20210;-85
2022/05/28 00:20:52;;;;;;;2.08;1.92;;;14.40;99.90;;;;;;4936992;29;20234;-84
2022/05/28 00:23:20;;;;;;;2.00;1.65;;;14.40;99.90;;;;;;4937717;29;20288;-85
2022/05/28 00:25:48;;;;;;;1.50;1.40;;;14.40;99.90;;;;;;4937540;29;20293;-84
2022/05/28 00:28:21;;;;;;;1.63;1.52;;;14.40;99.90;;;;;;4937700;29;20218;-84
2022/05/28 00:30:49;;;;;;;1.67;1.58;;;14.40;99.90;;;;;;4937482;29;20240;-84
2022/05/28 00:33:18;;;;;;;1.77;1.67;;;14.40;99.90;;;;;;4937181;29;20261;-84
2022/05/28 00:35:46;;;;;;;1.70;1.60;;;14.40;99.90;;;;;;4937238;29;20297;-85
2022/05/28 00:38:15;;;;;;;1.55;1.45;;;14.40;99.90;;;;;;4937348;29;20217;-84
2022/05/28 00:40:47;;;;;;;1.30;1.20;;;14.40;99.90;;;;;;4937101;29;20214;-84
2022/05/28 00:43:15;;;;;;;1.80;1.70;;;14.40;99.90;;;;;;4937853;29;20226;-85
2022/05/28 00:45:47;;;;;;;1.67;1.30;;;14.50;99.90;;;;;;4937120;29;20226;-84
2022/05/28 00:48:21;;;;;;;1.35;1.27;;;14.40;99.90;;;;;;4937240;29;20298;-85
2022/05/28 00:50:50;;;;;;;2.00;1.80;;;14.50;99.90;;;;;;4936828;29;20216;-85
2022/05/28 00:53:20;;;;;;;1.58;1.48;;;14.50;99.90;;;;;;4937277;29;20305;-85
2022/05/28 00:55:49;;;;;;;1.67;1.58;;;14.50;99.90;;;;;;4937253;29;20269;-84
2022/05/28 00:58:17;;;;;;;1.55;1.45;;;14.50;99.90;;;;;;4937241;29;20292;-85
2022/05/28 01:00:47;;;;;;;2.15;1.40;;;14.50;99.90;;;;;;4936686;29;20213;-85
2022/05/28 01:03:24;;;;;;;1.83;1.73;;;14.50;99.90;;;;;;4936593;29;20268;-84
2022/05/28 01:06:01;;;;;;;1.90;1.60;;;14.50;99.90;;;;;;4936308;29;20225;-84
2022/05/28 01:08:38;;;;;;;1.42;1.40;;;14.50;99.90;;;;;;4937004;29;20206;-84
2022/05/28 01:11:14;;;;;;;2.13;1.92;;;14.50;99.90;;;;;;4936539;29;20217;-84
2022/05/28 01:13:49;;;;;;;1.80;1.70;;;14.50;99.90;;;;;;4935693;29;20237;-84
2022/05/28 01:16:27;;;;;;;1.92;1.83;;;14.50;99.90;;;;;;4936890;29;20289;-84
2022/05/28 01:19:00;;;;;;;1.35;1.35;;;14.50;99.90;;;;;;4936812;29;20217;-84
2022/05/28 01:21:38;;;;;;;1.60;1.50;;;14.50;99.90;;;;;;4936202;29;20285;-84
2022/05/28 01:24:14;;;;;;;1.42;1.33;;;14.40;99.90;;;;;;4936437;29;20233;-84
2022/05/28 01:26:51;;;;;;;1.60;1.50;;;14.40;99.90;;;;;;4936008;29;20233;-84
2022/05/28 01:29:20;;;;;;;1.48;1.48;;;14.40;99.90;;;;;;4936449;29;20296;-85
2022/05/28 01:31:49;;;;;;;1.15;1.15;;;14.40;99.90;;;;;;4936191;29;20209;-84
2022/05/28 01:34:20;;;;;;;1.13;1.13;;;14.40;99.90;;;;;;4935862;29;20317;-85
2022/05/28 01:36:49;;;;;;;1.42;1.33;;;14.40;99.90;;;;;;4936380;29;20280;-84
2022/05/28 01:39:19;;;;;;;1.45;1.40;;;14.40;99.90;;;;;;4936519;29;20305;-84
2022/05/28 01:41:50;;;;;;;2.67;1.80;;;14.50;99.90;;;;;;4935994;29;20265;-84
2022/05/28 01:44:21;;;;;;;1.70;1.60;;;14.40;99.90;;;;;;4936199;29;20226;-84
2022/05/28 01:46:50;;;;;;;2.05;1.85;;;14.50;99.90;;;;;;4935756;29;20293;-84
2022/05/28 01:49:21;;;;;;;1.73;1.63;;;14.40;99.90;;;;;;4936195;29;20210;-84
2022/05/28 01:51:53;;;;;;;1.33;1.30;;;14.40;99.90;;;;;;4935874;29;20308;-84
2022/05/28 01:54:25;;;;;;;1.45;1.35;;;14.40;99.90;;;;;;4935974;29;20235;-84
2022/05/28 01:56:56;;;;;;;1.90;1.80;;;14.40;99.90;;;;;;4936221;29;20293;-84
2022/05/28 01:59:26;;;;;;;1.65;1.55;;;14.40;99.90;;;;;;4936278;29;20210;-84
2022/05/28 02:01:57;;;;;;;1.63;1.52;;;14.40;99.90;;;;;;4935751;29;20288;-84
2022/05/28 02:04:26;;;;;;;2.58;1.92;;;14.40;99.90;;;;;;4935965;29;20244;-84
2022/05/28 02:06:55;;;;;;;2.33;2.13;;;14.40;99.90;;;;;;4935317;29;20234;-84
2022/05/28 02:09:25;;;;;;;2.50;1.88;;;14.40;99.90;;;;;;4935598;29;20214;-84
2022/05/28 02:12:06;;;;;;;1.35;1.35;;;14.40;99.90;;;;;;4935494;29;20269;-84
2022/05/28 02:14:45;;;;;;;2.15;2.00;;;14.40;99.90;;;;;;4935958;29;20308;-84
2022/05/28 02:17:20;;;;;;;2.10;2.00;;;14.40;99.90;;;;;;4935561;29;20247;-84
2022/05/28 02:19:58;;;;;;;1.80;1.70;;;14.40;99.90;;;;;;4935429;29;20218;-84
2022/05/28 02:22:35;;;;;;;1.92;1.83;;;14.40;99.90;;;;;;4935561;29;20220;-84
2022/05/28 02:25:11;;;;;;;1.95;1.85;;;14.40;99.90;;;;;;4935274;29;20233;-84
2022/05/28 02:27:42;;;;;;;4.13;2.72;;;14.40;99.90;;;;;;4935888;29;20300;-84
2022/05/28 02:30:12;;;;;;;2.45;2.05;;;14.40;99.90;;;;;;4935333;29;20233;-84
2022/05/28 02:32:40;;;;;;;1.90;1.80;;;14.40;99.90;;;;;;4935860;29;20297;-84
2022/05/28 02:35:11;;;;;;;2.38;2.17;;;14.40;99.90;;;;;;4935223;29;20402;-84
2022/05/28 02:37:40;;;;;;;3.20;2.33;;;14.40;99.90;;;;;;4935385;29;20218;-84
2022/05/28 02:40:09;;;;;;;2.20;2.10;;;14.40;99.90;;;;;;4935252;29;20297;-84
2022/05/28 02:42:37;;;;;;;2.00;1.90;;;14.50;99.90;;;;;;4935544;29;20214;-84
2022/05/28 02:45:08;;;;;;;1.90;1.80;;;14.40;99.90;;;;;;4935233;29;20240;-84
2022/05/28 02:47:36;;;;;;;2.30;2.10;;;14.50;99.90;;;;;;4935573;29;20304;-84
2022/05/28 02:50:05;;;;;;;2.03;1.90;;;14.40;99.90;;;;;;4935427;29;20220;-84
2022/05/28 02:52:33;;;;;;;2.10;2.00;;;14.40;99.90;;;;;;4935258;29;20201;-84
2022/05/28 02:55:02;;;;;;;2.30;2.10;;;14.40;99.90;;;;;;4935394;29;20312;-84
2022/05/28 02:57:30;;;;;;;2.13;2.03;;;14.40;99.90;;;;;;4934991;29;20213;-84
2022/05/28 02:59:58;;;;;;;2.35;2.15;;;14.40;99.90;;;;;;4935363;29;20214;-84
2022/05/28 03:02:29;;;;;;;2.45;2.15;;;14.40;99.90;;;;;;4935149;29;20285;-84
2022/05/28 03:04:57;;;;;;;2.65;2.45;;;14.40;99.90;;;;;;4934983;29;20243;-84
2022/05/28 03:07:26;;;;;;;2.53;2.33;;;14.40;99.90;;;;;;4934952;29;20289;-84
2022/05/28 03:09:54;;;;;;;2.03;1.92;;;14.50;99.90;;;;;;4935308;29;20288;-84
2022/05/28 03:12:22;;;;;;;2.70;2.50;;;14.50;99.90;;;;;;4935032;29;20237;-84
2022/05/28 03:14:50;;;;;;;2.42;2.22;;;14.50;99.90;;;;;;4935041;29;20237;-84
2022/05/28 03:17:18;;;;;;;3.17;2.88;;;14.50;99.90;;;;;;4935068;29;20234;-84
2022/05/28 03:19:48;;;;;;;3.38;2.72;;;14.50;99.90;;;;;;4934881;29;20210;-84
2022/05/28 03:22:16;;;;;;;2.72;2.53;;;14.50;99.90;;;;;;4934946;29;20214;-84
2022/05/28 03:24:45;;;;;;;3.10;2.80;;;14.50;99.90;;;;;;4934956;29;20236;-84
2022/05/28 03:27:13;;;;;;;2.97;2.78;;;14.50;99.90;;;;;;4934518;29;20281;-84
2022/05/28 03:29:41;;;;;;;3.33;3.03;;;14.40;99.90;;;;;;4934890;29;20244;-84
2022/05/28 03:32:09;;;;;;;3.10;2.90;;;14.40;99.90;;;;;;4934466;29;20304;-84
2022/05/28 03:34:38;;;;;;;4.28;3.05;;;14.40;99.90;;;;;;4934922;29;20321;-84
2022/05/28 03:37:07;;;;;;;4.47;3.70;;;14.40;99.90;;;;;;4935664;29;20301;-84
2022/05/28 03:39:36;;;;;;;3.45;3.00;;;14.40;99.90;;;;;;4938468;29;20210;-84
2022/05/28 03:42:04;;;;;;;4.32;3.10;;;14.40;99.90;;;;;;4938080;29;20284;-84
2022/05/28 03:44:33;;;;;;;2.78;2.58;;;14.40;99.90;;;;;;4938191;29;20226;-84
2022/05/28 03:47:01;;;;;;;3.53;3.08;;;14.40;99.90;;;;;;4938189;29;20233;-85
2022/05/28 03:49:32;;;;;;;3.85;3.20;;;14.40;99.90;;;;;;4937850;29;20210;-84
2022/05/28 03:52:01;;;;;;;3.65;3.35;;;14.30;99.90;;;;;;4937834;29;20228;-85
2022/05/28 03:54:31;;;;;;;2.85;2.65;;;14.20;99.90;;;;;;4938184;29;20301;-85
2022/05/28 03:57:05;;;;;;;3.63;3.33;;;14.20;99.90;;;;;;4938196;29;20266;-85
2022/05/28 03:59:34;;;;;;;3.35;3.05;;;14.10;99.90;;;;;;4938372;29;20288;-85
2022/05/28 04:02:03;;;;;;;2.78;2.58;;;14.00;99.90;;;;;;4937865;29;20233;-85
2022/05/28 04:04:32;;;;;;;3.05;2.85;;;13.90;99.90;;;;;;4937638;29;20262;-85
2022/05/28 04:07:01;;;;;;;2.55;2.38;;;13.90;99.90;;;;;;4937594;29;20225;-84
2022/05/28 04:09:30;;;;;;;2.30;2.20;;;13.90;99.90;;;;;;4937874;29;20217;-84
2022/05/28 04:11:59;;;;;;;2.58;2.10;;;13.80;99.90;;;;;;4937708;29;20316;-84
2022/05/28 04:14:27;;;;;;;11.60;2.70;;;13.80;99.90;;;;;;4937880;29;20230;-84
2022/05/28 04:16:55;;;;;;;3.55;2.40;;;13.80;99.90;;;;;;4937654;29;20205;-84
2022/05/28 04:19:23;;;;;;;2.38;2.17;;;13.70;99.90;;;;;;4937677;29;20218;-84
2022/05/28 04:21:52;;;;;;;3.47;2.28;;;13.80;99.90;;;;;;4937262;29;20278;-84
2022/05/28 04:24:20;;;;;;;2.22;2.03;;;13.80;99.90;;;;;;4937643;29;20313;-85
2022/05/28 04:26:50;;;;;;;2.53;2.05;;;13.80;99.90;;;;;;4937325;29;20306;-84
2022/05/28 04:29:18;;;;;;;2.17;2.08;;;13.80;99.90;;;;;;4938010;29;20292;-84
2022/05/28 04:31:46;;;;;;;2.40;2.20;;;13.70;99.90;;;;;;4937556;29;20293;-84
2022/05/28 04:34:14;;;;;;;2.10;1.90;;;13.70;99.90;;;;;;4936887;29;20281;-84
2022/05/28 04:36:43;;;;;;;3.33;2.80;;;13.70;99.90;;;;;;4937385;29;20212;-84
2022/05/28 04:39:11;;;;;;;2.22;2.13;;;13.80;99.90;;;;;;4937500;29;20297;-84
2022/05/28 04:41:39;;;;;;;1.65;1.55;;;13.70;99.90;;;;;;4937183;29;20210;-84
2022/05/28 04:44:09;;;;;;;2.58;2.10;;;13.70;99.90;;;;;;4937035;29;20260;-84
2022/05/28 04:46:37;;;;;;;2.53;2.30;;;13.80;99.90;;;;;;4936910;29;20221;-84
2022/05/28 04:49:05;;;;;;;7.70;2.60;;;13.80;99.90;;;;;;4937196;29;20217;-84
2022/05/28 04:51:34;;;;;;;2.00;1.80;;;13.80;99.90;;;;;;4937000;29;20209;-84
2022/05/28 04:54:02;;;;;;;3.05;2.42;;;13.80;99.90;;;;;;4937131;29;20293;-84
2022/05/28 04:56:30;;;;;;;2.25;2.10;;;13.70;99.90;;;;;;4937044;29;20210;-84
2022/05/28 04:58:59;;;;;;;2.22;2.03;;;13.80;99.90;;;;;;4936887;29;20292;-84
2022/05/28 05:01:28;;;;;;;2.03;1.88;;;13.80;99.90;;;;;;4936360;29;20213;-84
2022/05/28 05:03:57;;;;;;;2.13;1.98;;;13.80;99.90;;;;;;4936752;29;20264;-84
2022/05/28 05:06:25;;;;;;;6.80;2.70;;;13.90;99.90;;;;;;4936513;29;20220;-84
2022/05/28 05:08:53;;;;;;;2.30;2.20;;;13.90;99.90;;;;;;4936683;29;20210;-84
2022/05/28 05:11:22;;;;;;;2.60;1.98;;;13.90;99.90;;;;;;4936927;29;20288;-84
2022/05/28 05:13:50;;;;;;;1.95;1.83;;;14.00;99.90;;;;;;4936578;29;20238;-84
2022/05/28 05:16:19;;;;;;;12.48;2.20;;;14.00;99.90;;;;;;4936695;29;20212;-84
2022/05/28 05:18:49;;;;;;;2.72;1.90;;;13.90;99.90;;;;;;4936771;29;20202;-84
2022/05/28 05:21:18;;;;;;;1.73;1.63;;;13.90;99.90;;;;;;4936305;29;20210;-84
2022/05/28 05:23:46;;;;;;;2.30;2.10;;;14.00;99.90;;;;;;4936388;29;20309;-84
2022/05/28 05:26:17;;;;;;;4.47;2.38;;;14.10;99.90;;;;;;4936519;29;20206;-84
2022/05/28 05:28:46;;;;;;;2.70;2.17;;;14.10;99.90;;;;;;4936119;29;20229;-84
2022/05/28 05:31:15;;;;;;;2.08;1.88;;;14.20;99.90;;;;;;4936059;29;20289;-84
2022/05/28 05:33:43;;;;;;;2.58;1.98;;;14.30;99.90;;;;;;4936388;29;20240;-84
2022/05/28 05:36:13;;;;;;;2.20;2.08;;;14.30;99.90;;;;;;4936048;29;20296;-84
2022/05/28 05:38:42;;;;;;;2.47;2.05;;;14.40;99.90;;;;;;4936211;29;20206;-84
2022/05/28 05:41:10;;;;;;;5.43;5.03;;;14.50;99.90;;;;;;4936210;29;20209;-84
2022/05/28 05:43:39;;;;;;;3.22;2.42;;;14.60;99.90;;;;;;4935950;29;20312;-84
2022/05/28 05:46:08;;;;;;;2.97;2.03;;;14.70;99.90;;;;;;4936244;29;20210;-84
2022/05/28 05:48:37;;;;;;;2.80;2.33;;;14.80;99.90;;;;;;4936082;29;20253;-84
2022/05/28 05:51:07;;;;;;;2.10;1.92;;;14.90;99.90;;;;;;4935489;29;20232;-84
2022/05/28 05:53:37;;;;;;;1.77;1.67;;;15.00;99.90;;;;;;4936171;29;20230;-85
2022/05/28 05:56:06;;;;;;;2.58;2.25;;;15.10;99.90;;;;;;4935974;29;20210;-84
2022/05/28 05:58:35;;;;;;;1.70;1.60;;;15.00;99.90;;;;;;4935792;29;20220;-84
2022/05/28 06:01:05;;;;;;;1.70;1.60;;;15.00;99.90;;;;;;4935292;29;20297;-84
2022/05/28 06:03:33;;;;;;;4.20;1.95;;;14.90;99.90;;;;;;4935725;29;20237;-84
2022/05/28 06:06:04;;;;;;;1.88;1.77;;;15.00;99.90;;;;;;4935915;29;20296;-84
2022/05/28 06:08:32;;;;;;;2.25;2.10;;;15.10;99.90;;;;;;4935984;29;20229;-84
2022/05/28 06:11:02;;;;;;;2.20;2.03;;;15.00;99.90;;;;;;4935610;29;20206;-84
2022/05/28 06:13:30;;;;;;;1.88;1.77;;;14.80;99.90;;;;;;4935568;29;20308;-84
2022/05/28 06:15:59;;;;;;;2.45;2.25;;;14.90;99.90;;;;;;4935755;29;20229;-84
2022/05/28 06:18:27;;;;;;;2.13;1.98;;;14.80;99.90;;;;;;4935736;29;20241;-84
2022/05/28 06:20:55;;;;;;;4.95;2.55;;;14.80;99.90;;;;;;4935074;29;20234;-84
2022/05/28 06:23:24;;;;;;;2.30;2.10;;;15.00;99.90;;;;;;4935414;29;20301;-84
2022/05/28 06:25:52;;;;;;;6.30;2.60;;;15.10;99.90;;;;;;4935574;29;20205;-84
2022/05/28 06:28:23;;;;;;;2.42;2.22;;;15.20;99.90;;;;;;4935606;29;20313;-84
2022/05/28 06:30:51;;;;;;;2.45;1.70;;;15.40;99.90;;;;;;4935382;29;20220;-84
2022/05/28 06:33:20;;;;;;;2.28;2.03;;;15.30;99.90;;;;;;4935316;29;20237;-84
2022/05/28 06:35:48;;;;;;;1.95;1.85;;;15.30;99.90;;;;;;4935363;29;20210;-84
2022/05/28 06:38:17;;;;;;;2.03;1.85;;;15.40;99.90;;;;;;4935281;29;20229;-84
2022/05/28 06:40:45;;;;;;;2.30;2.13;;;15.50;99.90;;;;;;4935452;29;20218;-84
2022/05/28 06:43:13;;;;;;;3.00;1.92;;;15.50;99.90;;;;;;4935380;29;20226;-84
2022/05/28 06:45:43;;;;;;;1.83;1.73;;;15.50;99.90;;;;;;4935572;29;20206;-84
2022/05/28 06:48:11;;;;;;;2.63;2.42;;;15.60;99.90;;;;;;4935206;29;20229;-84
2022/05/28 06:53:26;;;;;;;2.90;2.63;;;15.90;99.90;;;;;;4935456;29;20253;-84
2022/05/28 06:55:54;;;;;;;3.00;2.08;;;16.00;99.90;;;;;;4935657;29;20210;-84
2022/05/28 06:58:22;;;;;;;2.15;2.00;;;16.00;99.90;;;;;;4935279;29;20210;-83
2022/05/28 07:00:52;;;;;;;1.92;1.83;;;16.10;99.90;;;;;;4935037;29;20214;-84
2022/05/28 07:03:23;;;;;;;2.35;2.05;;;16.30;99.90;;;;;;4935184;29;20230;-85
2022/05/28 07:05:51;;;;;;;2.30;1.83;;;16.50;99.90;;;;;;4935403;29;20213;-84
2022/05/28 07:08:20;;;;;;;2.60;2.22;;;16.50;99.90;;;;;;4935070;29;20239;-84
2022/05/28 07:10:50;;;;;;;3.08;2.22;;;16.60;99.90;;;;;;4935042;29;20218;-84
2022/05/28 07:13:20;;;;;;;2.42;2.22;;;16.50;99.90;;;;;;4937670;29;20230;-84
2022/05/28 07:15:48;;;;;;;3.45;1.88;;;16.40;99.90;;;;;;4938818;29;20209;-84
2022/05/28 07:18:18;;;;;;;3.90;2.50;;;16.30;99.90;;;;;;4938531;29;20277;-84
2022/05/28 07:20:47;;;;;;;2.15;1.95;;;16.20;99.90;;;;;;4938269;29;20210;-84
2022/05/28 07:23:17;;;;;;;4.78;2.53;;;16.20;99.90;;;;;;4938909;29;20240;-84
2022/05/28 07:25:46;;;;;;;2.92;2.17;;;16.20;99.90;;;;;;4938225;29;20282;-84
2022/05/28 07:28:28;;;;;;;2.45;2.15;;;16.20;99.90;;;;;;4938216;29;20237;-84
2022/05/28 07:30:58;;;;;;;2.75;2.47;;;16.20;99.90;;;;;;4938248;29;20206;-83
2022/05/28 07:33:30;;;;;;;2.10;1.90;;;16.20;99.90;;;;;;4938688;29;20242;-84
2022/05/28 07:35:59;;;;;;;7.38;2.08;;;16.10;99.90;;;;;;4938768;29;20213;-83
2022/05/28 07:38:29;;;;;;;1.92;1.80;;;16.10;99.90;;;;;;4938405;29;20265;-84
2022/05/28 07:40:57;;;;;;;1.83;1.65;;;16.10;99.90;;;;;;4938302;29;20408;-84
2022/05/28 07:43:26;;;;;;;1.80;1.70;;;16.10;99.90;;;;;;4938167;29;20312;-84
2022/05/28 07:45:54;;;;;;;6.22;2.15;;;16.00;99.90;;;;;;4938498;29;20289;-84
2022/05/28 07:48:22;;;;;;;3.05;2.33;;;16.00;99.90;;;;;;4938287;29;20222;-84
2022/05/28 07:50:52;;;;;;;5.93;2.50;;;16.00;99.90;;;;;;4938001;29;20218;-84
2022/05/28 07:53:20;;;;;;;3.63;2.28;;;16.00;99.90;;;;;;4938178;29;20325;-83
2022/05/28 07:55:49;;;;;;;1.92;1.83;;;16.00;99.90;;;;;;4938139;29;20222;-84
2022/05/28 07:58:20;;;;;;;8.70;2.63;;;16.20;99.90;;;;;;4938063;29;20206;-84
2022/05/28 08:00:50;;;;;;;3.95;1.95;;;16.70;99.90;;;;;;4937564;29;20220;-84
2022/05/28 08:03:20;;;;;;;2.42;2.22;;;18.00;99.90;;;;;;4937632;29;20229;-85
2022/05/28 08:05:50;;;;;;;3.03;2.28;;;19.10;99.90;;;;;;4937435;29;20297;-84
2022/05/28 08:08:22;;;;;;;5.72;2.50;;;19.30;99.90;;;;;;4937063;29;20267;-84
2022/05/28 08:10:51;;;;;;;3.08;2.20;;;18.80;99.90;;;;;;4937642;29;20309;-85
2022/05/28 08:13:21;;;;;;;3.35;2.03;;;18.30;99.90;;;;;;4937671;29;20284;-84
2022/05/28 08:15:52;;;;;;;3.33;2.20;;;17.90;99.90;;;;;;4938000;29;20206;-84
2022/05/28 08:18:24;;;;;;;5.57;2.17;;;17.50;99.90;;;;;;4937896;29;20289;-84
2022/05/28 08:23:41;;;;;;;4.53;2.00;;;17.20;99.90;;;;;;4937085;29;20312;-84
2022/05/28 08:26:11;;;;;;;1.92;1.83;;;17.20;99.90;;;;;;4937261;29;20329;-84
2022/05/28 08:28:41;;;;;;;4.22;2.20;;;17.40;99.90;;;;;;4937612;29;20232;-84
2022/05/28 08:31:10;;;;;;;1.75;1.65;;;17.50;99.90;;;;;;4937023;29;20293;-84
2022/05/28 08:33:38;;;;;;;5.30;2.17;;;17.70;99.90;;;;;;4937102;29;20234;-85
2022/05/28 08:36:07;;;;;;;2.08;1.98;;;18.40;99.90;;;;;;4937098;29;20289;-85
2022/05/28 08:38:37;;;;;;;7.50;2.22;;;18.80;99.90;;;;;;4936808;29;20277;-85
2022/05/28 08:41:12;;;;;;;2.58;2.10;;;18.90;99.90;;;;;;4937277;29;20216;-84
2022/05/28 08:43:46;;;;;;;4.90;2.53;;;18.70;99.90;;;;;;4937349;29;20245;-84
2022/05/28 08:46:16;;;;;;;2.80;2.33;;;18.60;99.90;;;;;;4937113;29;20293;-85
2022/05/28 08:48:47;;;;;;;2.35;1.95;;;18.30;99.90;;;;;;4936471;29;20253;-85
2022/05/28 08:51:20;;;;;;;3.88;1.98;;;18.50;99.90;;;;;;4936782;29;20217;-85
2022/05/28 08:53:51;;;;;;;4.63;2.60;;;18.70;99.90;;;;;;4936587;29;20304;-84
2022/05/28 08:56:25;;;;;;;2.30;2.10;;;19.00;99.90;;;;;;4937247;29;20255;-85
2022/05/28 08:59:03;;;;;;;2.40;2.08;;;19.30;99.90;;;;;;4936778;29;20198;-85
2022/05/28 09:01:33;;;;;;;3.40;2.28;;;19.30;99.90;;;;;;4936462;29;20316;-85
2022/05/28 09:04:05;;;;;;;3.00;2.33;;;19.30;99.90;;;;;;4937066;29;20225;-85
2022/05/28 09:06:38;;;;;;;7.97;2.50;;;18.80;99.90;;;;;;4936571;29;20214;-84
2022/05/28 09:09:10;;;;;;;2.88;2.22;;;19.00;99.90;;;;;;4936292;29;20231;-85
2022/05/28 09:11:44;;;;;;;2.83;2.25;;;19.00;99.90;;;;;;4936196;29;20233;-85
2022/05/28 09:14:24;;;;;;;3.63;1.95;;;19.10;99.90;;;;;;4936363;29;20308;-85
2022/05/28 09:16:54;;;;;;;4.00;2.47;;;19.10;99.90;;;;;;4936440;29;20224;-85
2022/05/28 09:19:25;;;;;;;12.48;2.72;;;19.40;99.90;;;;;;4936754;29;20205;-85
2022/05/28 09:21:54;;;;;;;5.25;2.70;;;20.10;99.90;;;;;;4935900;29;20300;-85
2022/05/28 09:24:25;;;;;;;2.50;2.17;;;20.70;99.60;;;;;;4936573;29;20233;-85
2022/05/28 09:27:03;;;;;;;4.10;2.00;;;21.10;98.40;;;;;;4936250;29;20225;-85
2022/05/28 09:29:57;;;;;;;3.60;2.00;;;21.30;98.30;;;;;;4935945;29;20233;-85
2022/05/28 09:32:35;;;;;;;1.95;1.75;;;21.30;97.10;;;;;;4935998;29;20293;-85
2022/05/28 09:35:10;;;;;;;2.55;2.10;;;21.00;97.80;;;;;;4935420;29;20233;-85
2022/05/28 09:37:52;;;;;;;2.88;1.88;;;21.30;97.60;;;;;;4936363;29;20293;-85
2022/05/28 09:40:25;;;;;;;1.90;1.80;;;22.10;96.50;;;;;;4935765;29;20206;-85
2022/05/28 09:43:05;;;;;;;2.33;1.92;;;23.00;97.10;;;;;;4935626;29;20214;-85
2022/05/28 09:45:43;;;;;;;2.53;1.90;;;23.80;96.50;;;;;;4936052;29;20293;-85
2022/05/28 09:48:19;;;;;;;3.08;2.40;;;24.30;93.20;;;;;;4936165;29;20217;-85
2022/05/28 09:50:47;;;;;;;3.03;1.98;;;23.90;90.70;;;;;;4935566;29;20217;-85
2022/05/28 09:56:18;;;;;;;2.40;2.00;;;22.50;91.80;;;;;;4935773;29;20261;-85
2022/05/28 09:58:48;;;;;;;2.40;2.03;;;21.80;91.70;;;;;;4935694;29;20293;-85
2022/05/28 10:01:21;;;;;;;2.28;1.83;;;21.30;92.20;;;;;;4935472;29;20236;-85
2022/05/28 10:06:47;;;;;;;1.65;1.55;;;21.20;93.60;;;;;;4935498;29;20210;-85
2022/05/28 10:09:18;;;;;;;2.17;1.88;;;20.70;93.80;;;;;;4935315;29;20236;-85
2022/05/28 10:11:52;;;;;;;2.20;1.92;;;20.70;92.80;;;;;;4935267;29;20214;-85
2022/05/28 10:14:23;;;;;;;3.97;1.85;;;20.50;93.90;;;;;;4935291;29;20233;-85
2022/05/28 10:16:56;;;;;;;3.28;2.10;;;20.10;94.10;;;;;;4935918;29;20214;-85
2022/05/28 10:19:31;;;;;;;4.07;2.20;;;19.80;94.90;;;;;;4935462;29;20268;-85
2022/05/28 10:22:02;;;;;;;1.70;1.55;;;19.20;95.00;;;;;;4934875;29;20289;-85
2022/05/28 10:24:41;;;;;;;3.22;2.28;;;19.00;95.80;;;;;;4935290;29;20257;-84
2022/05/28 10:27:29;;;;;;;2.42;2.10;;;18.90;96.50;;;;;;4935396;29;20239;-85
2022/05/28 10:30:03;;;;;;;5.97;2.53;;;18.60;96.40;;;;;;4935518;29;20229;-85
2022/05/28 10:32:36;;;;;;;2.80;2.55;;;18.60;96.30;;;;;;4935555;29;20285;-85
2022/05/28 10:35:16;;;;;;;2.25;1.95;;;18.60;96.50;;;;;;4935650;29;20253;-84
2022/05/28 10:37:44;;;;;;;2.63;1.77;;;18.40;95.70;;;;;;4935261;29;20314;-85
2022/05/28 10:40:20;;;;;;;1.95;1.80;;;18.30;96.60;;;;;;4935035;29;20288;-85
2022/05/28 10:42:48;;;;;;;2.83;1.52;;;18.70;96.60;;;;;;4935445;29;20301;-85
2022/05/28 10:45:20;;;;;;;2.17;1.60;;;19.40;96.10;;;;;;4935183;29;20214;-85
2022/05/28 10:48:18;;;;;;;2.15;1.95;;;20.30;94.40;;;;;;4938862;29;20217;-85
2022/05/28 10:50:58;;;;;;;2.22;2.03;;;20.80;93.80;;;;;;4938546;29;20313;-85
2022/05/28 10:53:44;;;;;;;3.22;1.95;;;21.30;91.60;;;;;;4939173;29;20321;-86
2022/05/28 10:56:31;;;;;;;1.58;1.48;;;21.40;90.80;;;;;;4939129;29;20205;-85
2022/05/28 10:59:11;;;;;;;1.75;1.65;;;21.00;90.40;;;;;;4939164;29;20296;-85
2022/05/28 11:01:46;;;;;;;1.88;1.58;;;20.90;91.00;;;;;;4938860;29;20209;-85
2022/05/28 11:04:27;;;;;;;1.55;1.40;;;20.70;90.40;;;;;;4938902;29;20233;-85
2022/05/28 11:07:31;;;;;;;4.05;1.88;;;20.40;90.70;;;;;;4939100;29;20220;-85
2022/05/28 11:10:13;;;;;;;2.05;1.95;;;19.70;90.70;;;;;;4938670;29;20317;-85
2022/05/28 11:13:03;;;;;;;3.35;1.70;;;19.30;91.70;;;;;;4938807;29;20218;-85
2022/05/28 11:15:48;;;;;;;6.75;1.83;;;19.20;92.70;;;;;;4938584;29;20293;-85
2022/05/28 11:18:43;;;;;;;2.00;1.65;;;19.20;93.00;;;;;;4938251;29;20230;-85
2022/05/28 11:21:22;;;;;;;2.08;1.75;;;19.00;96.70;;;;;;4938255;29;20198;-85
2022/05/28 11:24:14;;;;;;;8.65;2.35;;;18.40;95.20;;;;;;4938654;29;20240;-85
2022/05/28 11:26:57;;;;;;;1.70;1.55;;;18.20;95.50;;;;;;4938631;29;20216;-85
2022/05/28 11:29:41;;;;;;;2.50;2.00;;;18.00;95.70;;;;;;4938683;29;20292;-85
2022/05/28 11:32:15;;;;;;;3.05;2.17;;;17.70;97.40;;;;;;4937733;29;20230;-85
2022/05/28 11:34:55;;;;;;;1.70;1.60;;;17.60;97.20;;;;;;4938315;29;20236;-85
2022/05/28 11:37:28;;;;;;;3.10;2.03;;;17.40;97.50;;;;;;4938431;29;20297;-85
2022/05/28 11:40:00;;;;;;;1.65;1.55;;;17.40;96.40;;;;;;4938103;29;20289;-85
2022/05/28 11:42:38;;;;;;;2.15;1.88;;;17.40;97.60;;;;;;4938075;29;20295;-85
2022/05/28 11:45:09;;;;;;;2.15;1.95;;;17.30;97.60;;;;;;4937959;29;20249;-86
2022/05/28 11:47:45;;;;;;;2.00;1.90;;;17.20;98.50;;;;;;4938164;29;20274;-85
2022/05/28 11:53:20;;;;;;;2.55;2.30;;;16.90;99.90;;;;;;4938014;29;20301;-85
2022/05/28 11:55:54;;;;;;;2.05;1.92;;;16.70;99.90;;;;;;4937763;29;20269;-85
2022/05/28 11:58:28;;;;;;;2.85;2.10;;;16.50;99.90;;;;;;4937493;29;20292;-85
2022/05/28 12:01:01;;;;;;;3.78;2.67;;;16.40;99.90;;;;;;4937882;29;20226;-86
2022/05/28 12:03:31;;;;;;;5.90;2.67;;;16.30;99.90;;;;;;4937947;29;20226;-85
2022/05/28 12:06:22;;;;;;;2.38;2.17;;;16.40;99.90;;;;;;4937845;29;20234;-85
2022/05/28 12:08:59;;;;;;;2.78;2.58;;;16.20;99.90;;;;;;4937908;29;20213;-85
2022/05/28 12:11:41;;;;;;;5.43;3.08;;;16.10;99.90;;;;;;4937193;29;20308;-85
2022/05/28 12:14:25;;;;;;;7.30;3.08;;;15.90;99.90;;;;;;4937482;29;20236;-85
2022/05/28 12:17:08;;;;;;;4.93;4.28;;;15.90;99.90;;;;;;4937755;29;20297;-85
2022/05/28 12:19:45;;;;;;;5.45;4.00;;;15.90;99.90;;;;;;4937042;29;20269;-86
2022/05/28 12:22:27;;;;;;;3.92;3.40;;;15.80;99.90;;;;;;4937454;29;20322;-85
2022/05/28 12:24:59;;;;;;;5.78;4.07;;;15.80;99.90;;;;;;4937337;29;20308;-85
2022/05/28 12:27:38;;;;;;;5.68;3.88;;;15.70;99.90;;;;;;4937309;29;20245;-85
2022/05/28 12:30:09;;;;;;;5.47;2.85;;;15.50;99.90;;;;;;4937394;29;20293;-85
2022/05/28 12:32:45;;;;;;;2.13;1.92;;;15.50;99.90;;;;;;4937239;29;20229;-85
2022/05/28 12:35:37;;;;;;;2.63;2.40;;;15.50;99.90;;;;;;4937259;29;20238;-85
2022/05/28 12:38:19;;;;;;;4.05;3.47;;;15.50;99.90;;;;;;4937185;29;20313;-85
2022/05/28 12:40:55;;;;;;;3.95;2.55;;;15.70;99.90;;;;;;4937114;29;20260;-85
2022/05/28 12:43:29;;;;;;;4.28;3.45;;;15.70;99.90;;;;;;4937186;29;20229;-85
2022/05/28 12:46:00;;;;;;;3.08;2.65;;;15.80;99.90;;;;;;4937326;29;20269;-85
2022/05/28 12:48:32;;;;;;;5.60;3.90;;;15.90;99.90;;;;;;4936928;29;20206;-85
2022/05/28 12:51:18;;;;;;;4.75;3.83;;;15.90;99.90;;;;;;4936740;29;20234;-85
2022/05/28 12:53:55;;;;;;;2.45;2.22;;;15.90;99.90;;;;;;4936565;29;20289;-85
2022/05/28 12:56:28;;;;;;;3.22;2.95;;;16.00;99.90;;;;;;4936746;29;20281;-85
2022/05/28 12:59:09;;;;;;;3.28;2.60;;;16.10;99.90;;;;;;4936907;29;20217;-85
2022/05/28 13:01:39;;;;;;;2.90;1.95;;;16.00;99.90;;;;;;4936514;29;20209;-84
2022/05/28 13:04:15;;;;;;;7.93;2.30;;;16.10;99.90;;;;;;4936585;29;20240;-84
2022/05/28 13:06:48;;;;;;;6.28;2.40;;;16.30;99.90;;;;;;4936672;29;20221;-84
2022/05/28 13:09:24;;;;;;;2.60;2.40;;;16.20;99.90;;;;;;4936017;29;20210;-84
2022/05/28 13:11:58;;;;;;;2.63;2.42;;;16.30;99.90;;;;;;4936029;29;20229;-84
2022/05/28 13:14:59;;;;;;;2.80;2.33;;;16.30;99.90;;;;;;4936341;29;20241;-84
2022/05/28 13:18:00;;;;;;;3.80;2.55;;;16.40;99.90;;;;;;4936782;29;20293;-84
2022/05/28 13:20:54;;;;;;;1.95;1.75;;;16.40;99.90;;;;;;4935890;29;20214;-85
2022/05/28 13:23:36;;;;;;;3.58;2.30;;;16.30;99.90;;;;;;4919104;29;20293;-85
2022/05/28 13:26:40;;;;;;;2.00;1.90;;;16.40;99.90;;;;;;4936345;29;20241;-84